sensor_id;sensor_type;location;lat;lon;timestamp;temperature;humidity
7684;DHT22;3884;48.616;12.872;2023-04-15T00:02:15;6.10;99.90
7684;DHT22;3884;48.616;12.872;2023-04-15T00:04:43;6.10;99.90
7684;DHT22;3884;48.616;12.872;2023-04-15T00:07:10;6.10;99.90
7684;DHT22;3884;48.616;12.872;2023-04-15T00:09:36;6.10;99.90
7684;DHT22;3884;48.616;12.872;2023-04-15T00:12:04;6.10;99.90
7684;DHT22;3884;48.616;12.872;2023-04-15T00:14:33;6.10;99.90
7684;DHT22;3884;48.616;12.872;2023-04-15T00:17:00;6.10;99.90
7684;DHT22;3884;48.616;12.872;2023-04-15T00:19:28;6.10;99.90
7684;DHT22;3884;48.616;12.872;2023-04-15T00:21:55;6.10;99.90
7684;DHT22;3884;48.616;12.872;2023-04-15T00:24:22;6.10;99.90
7684;DHT22;3884;48.616;12.872;2023-04-15T00:26:49;6.10;99.90
7684;DHT22;3884;48.616;12.872;2023-04-15T00:29:15;6.10;99.90
7684;DHT22;3884;48.616;12.872;2023-04-15T00:31:44;6.10;99.90
7684;DHT22;3884;48.616;12.872;2023-04-15T00:34:12;6.10;99.90
7684;DHT22;3884;48.616;12.872;2023-04-15T00:36:42;6.10;99.90
7684;DHT22;3884;48.616;12.872;2023-04-15T00:39:09;6.10;99.90
7684;DHT22;3884;48.616;12.872;2023-04-15T00:41:36;6.10;99.90
7684;DHT22;3884;48.616;12.872;2023-04-15T00:44:04;6.00;99.90
7684;DHT22;3884;48.616;12.872;2023-04-15T00:46:34;6.00;99.90
7684;DHT22;3884;48.616;12.872;2023-04-15T00:49:05;6.10;99.90
7684;DHT22;3884;48.616;12.872;2023-04-15T00:51:32;6.10;99.90
7684;DHT22;3884;48.616;12.872;2023-04-15T00:54:01;6.10;99.90
7684;DHT22;3884;48.616;12.872;2023-04-15T00:56:29;6.10;99.90
7684;DHT22;3884;48.616;12.872;2023-04-15T00:58:57;6.10;99.90
7684;DHT22;3884;48.616;12.872;2023-04-15T01:01:25;6.10;99.90
7684;DHT22;3884;48.616;12.872;2023-04-15T01:03:52;6.10;99.90
7684;DHT22;3884;48.616;12.872;2023-04-15T01:06:20;6.10;99.90
7684;DHT22;3884;48.616;12.872;2023-04-15T01:08:47;6.10;99.90
7684;DHT22;3884;48.616;12.872;2023-04-15T01:11:15;6.10;99.90
7684;DHT22;3884;48.616;12.872;2023-04-15T01:13:42;6.00;99.90
7684;DHT22;3884;48.616;12.872;2023-04-15T01:16:10;6.00;99.90
7684;DHT22;3884;48.616;12.872;2023-04-15T01:18:38;6.00;99.90
7684;DHT22;3884;48.616;12.872;2023-04-15T01:21:06;6.00;99.90
7684;DHT22;3884;48.616;12.872;2023-04-15T01:23:36;6.00;99.90
7684;DHT22;3884;48.616;12.872;2023-04-15T01:26:06;6.00;99.90
7684;DHT22;3884;48.616;12.872;2023-04-15T01:28:33;6.00;99.90
7684;DHT22;3884;48.616;12.872;2023-04-15T01:31:08;6.00;99.90
7684;DHT22;3884;48.616;12.872;2023-04-15T01:33:38;5.90;99.90
7684;DHT22;3884;48.616;12.872;2023-04-15T01:36:06;5.90;99.90
7684;DHT22;3884;48.616;12.872;2023-04-15T01:38:35;5.90;99.90
7684;DHT22;3884;48.616;12.872;2023-04-15T01:41:02;5.90;99.90
7684;DHT22;3884;48.616;12.872;2023-04-15T01:43:33;5.90;99.90
7684;DHT22;3884;48.616;12.872;2023-04-15T01:46:01;6.00;99.90
7684;DHT22;3884;48.616;12.872;2023-04-15T01:48:28;5.90;99.90
7684;DHT22;3884;48.616;12.872;2023-04-15T01:50:55;6.00;99.90
7684;DHT22;3884;48.616;12.872;2023-04-15T01:53:23;6.00;99.90
7684;DHT22;3884;48.616;12.872;2023-04-15T01:55:50;6.00;99.90
7684;DHT22;3884;48.616;12.872;2023-04-15T01:58:17;6.00;99.90
7684;DHT22;3884;48.616;12.872;2023-04-15T02:00:46;6.00;99.90
7684;DHT22;3884;48.616;12.872;2023-04-15T02:03:13;6.00;99.90
7684;DHT22;3884;48.616;12.872;2023-04-15T02:05:40;6.00;99.90
7684;DHT22;3884;48.616;12.872;2023-04-15T02:08:07;6.00;99.90
7684;DHT22;3884;48.616;12.872;2023-04-15T02:10:36;6.00;99.90
7684;DHT22;3884;48.616;12.872;2023-04-15T02:13:04;6.10;99.90
7684;DHT22;3884;48.616;12.872;2023-04-15T02:15:31;6.10;99.90
7684;DHT22;3884;48.616;12.872;2023-04-15T02:18:00;6.10;99.90
7684;DHT22;3884;48.616;12.872;2023-04-15T02:20:27;6.10;99.90
7684;DHT22;3884;48.616;12.872;2023-04-15T02:22:57;6.00;99.90
7684;DHT22;3884;48.616;12.872;2023-04-15T02:25:24;6.00;99.90
7684;DHT22;3884;48.616;12.872;2023-04-15T02:27:50;6.00;99.90
7684;DHT22;3884;48.616;12.872;2023-04-15T02:30:18;6.00;99.90
7684;DHT22;3884;48.616;12.872;2023-04-15T02:32:45;6.00;99.90
7684;DHT22;3884;48.616;12.872;2023-04-15T02:35:14;6.00;99.90
7684;DHT22;3884;48.616;12.872;2023-04-15T02:37:44;6.00;99.90
7684;DHT22;3884;48.616;12.872;2023-04-15T02:40:12;6.00;99.90
7684;DHT22;3884;48.616;12.872;2023-04-15T02:42:39;6.00;99.90
7684;DHT22;3884;48.616;12.872;2023-04-15T02:45:10;6.00;99.90
7684;DHT22;3884;48.616;12.872;2023-04-15T02:47:38;6.00;99.90
7684;DHT22;3884;48.616;12.872;2023-04-15T02:50:07;6.00;99.90
7684;DHT22;3884;48.616;12.872;2023-04-15T02:52:38;6.00;99.90
7684;DHT22;3884;48.616;12.872;2023-04-15T02:55:06;6.00;99.90
7684;DHT22;3884;48.616;12.872;2023-04-15T02:57:35;6.00;99.90
7684;DHT22;3884;48.616;12.872;2023-04-15T03:00:06;6.00;99.90
7684;DHT22;3884;48.616;12.872;2023-04-15T03:02:36;6.00;99.90
7684;DHT22;3884;48.616;12.872;2023-04-15T03:05:04;6.00;99.90
7684;DHT22;3884;48.616;12.872;2023-04-15T03:07:32;6.00;99.90
7684;DHT22;3884;48.616;12.872;2023-04-15T03:10:01;6.00;99.90
7684;DHT22;3884;48.616;12.872;2023-04-15T03:12:28;5.90;99.90
7684;DHT22;3884;48.616;12.872;2023-04-15T03:14:56;5.90;99.90
7684;DHT22;3884;48.616;12.872;2023-04-15T03:17:32;5.90;99.90
7684;DHT22;3884;48.616;12.872;2023-04-15T03:20:00;6.00;99.90
7684;DHT22;3884;48.616;12.872;2023-04-15T03:22:27;6.00;99.90
7684;DHT22;3884;48.616;12.872;2023-04-15T03:24:54;5.90;99.90
7684;DHT22;3884;48.616;12.872;2023-04-15T03:27:23;5.90;99.90
7684;DHT22;3884;48.616;12.872;2023-04-15T03:29:50;5.90;99.90
7684;DHT22;3884;48.616;12.872;2023-04-15T03:32:18;5.90;99.90
7684;DHT22;3884;48.616;12.872;2023-04-15T03:34:45;6.00;99.90
7684;DHT22;3884;48.616;12.872;2023-04-15T03:37:12;6.00;99.90
7684;DHT22;3884;48.616;12.872;2023-04-15T03:39:39;5.90;99.90
7684;DHT22;3884;48.616;12.872;2023-04-15T03:42:06;5.90;99.90
7684;DHT22;3884;48.616;12.872;2023-04-15T03:44:34;5.90;99.90
7684;DHT22;3884;48.616;12.872;2023-04-15T03:47:01;5.90;99.90
7684;DHT22;3884;48.616;12.872;2023-04-15T03:49:28;5.90;99.90
7684;DHT22;3884;48.616;12.872;2023-04-15T03:51:55;5.90;99.90
7684;DHT22;3884;48.616;12.872;2023-04-15T03:54:22;5.80;99.90
7684;DHT22;3884;48.616;12.872;2023-04-15T03:56:49;5.80;99.90
7684;DHT22;3884;48.616;12.872;2023-04-15T03:59:15;5.80;99.90
7684;DHT22;3884;48.616;12.872;2023-04-15T04:01:44;5.80;99.90
7684;DHT22;3884;48.616;12.872;2023-04-15T04:04:10;5.70;99.90
7684;DHT22;3884;48.616;12.872;2023-04-15T04:06:38;5.70;99.90
7684;DHT22;3884;48.616;12.872;2023-04-15T04:09:04;5.70;99.90
7684;DHT22;3884;48.616;12.872;2023-04-15T04:11:31;5.70;99.90
7684;DHT22;3884;48.616;12.872;2023-04-15T04:13:58;5.80;99.90
7684;DHT22;3884;48.616;12.872;2023-04-15T04:16:25;5.80;99.90
7684;DHT22;3884;48.616;12.872;2023-04-15T04:18:53;5.70;99.90
7684;DHT22;3884;48.616;12.872;2023-04-15T04:21:20;5.60;99.90
7684;DHT22;3884;48.616;12.872;2023-04-15T04:23:47;5.60;99.90
7684;DHT22;3884;48.616;12.872;2023-04-15T04:26:14;5.60;99.90
7684;DHT22;3884;48.616;12.872;2023-04-15T04:28:41;5.60;99.90
7684;DHT22;3884;48.616;12.872;2023-04-15T04:31:08;5.60;99.90
7684;DHT22;3884;48.616;12.872;2023-04-15T04:33:35;5.60;99.90
7684;DHT22;3884;48.616;12.872;2023-04-15T04:36:04;5.60;99.90
7684;DHT22;3884;48.616;12.872;2023-04-15T04:38:31;5.50;99.90
7684;DHT22;3884;48.616;12.872;2023-04-15T04:40:58;5.50;99.90
7684;DHT22;3884;48.616;12.872;2023-04-15T04:43:24;5.50;99.90
7684;DHT22;3884;48.616;12.872;2023-04-15T04:45:52;5.50;99.90
7684;DHT22;3884;48.616;12.872;2023-04-15T04:48:18;5.50;99.90
7684;DHT22;3884;48.616;12.872;2023-04-15T04:50:45;5.50;99.90
7684;DHT22;3884;48.616;12.872;2023-04-15T04:53:14;5.50;99.90
7684;DHT22;3884;48.616;12.872;2023-04-15T04:55:41;5.50;99.90
7684;DHT22;3884;48.616;12.872;2023-04-15T04:58:07;5.40;99.90
7684;DHT22;3884;48.616;12.872;2023-04-15T05:00:34;5.40;99.90
7684;DHT22;3884;48.616;12.872;2023-04-15T05:03:02;5.40;99.90
7684;DHT22;3884;48.616;12.872;2023-04-15T05:05:29;5.40;99.90
7684;DHT22;3884;48.616;12.872;2023-04-15T05:07:56;5.40;99.90
7684;DHT22;3884;48.616;12.872;2023-04-15T05:10:24;5.40;99.90
7684;DHT22;3884;48.616;12.872;2023-04-15T05:12:51;5.40;99.90
7684;DHT22;3884;48.616;12.872;2023-04-15T05:15:18;5.40;99.90
7684;DHT22;3884;48.616;12.872;2023-04-15T05:17:45;5.30;99.90
7684;DHT22;3884;48.616;12.872;2023-04-15T05:20:12;5.30;99.90
7684;DHT22;3884;48.616;12.872;2023-04-15T05:22:39;5.30;99.90
7684;DHT22;3884;48.616;12.872;2023-04-15T05:25:06;5.30;99.90
7684;DHT22;3884;48.616;12.872;2023-04-15T05:27:35;5.30;99.90
7684;DHT22;3884;48.616;12.872;2023-04-15T05:30:02;5.30;99.90
7684;DHT22;3884;48.616;12.872;2023-04-15T05:32:30;5.30;99.90
7684;DHT22;3884;48.616;12.872;2023-04-15T05:34:56;5.30;99.90
7684;DHT22;3884;48.616;12.872;2023-04-15T05:37:23;5.30;99.90
7684;DHT22;3884;48.616;12.872;2023-04-15T05:39:50;5.30;99.90
7684;DHT22;3884;48.616;12.872;2023-04-15T05:42:17;5.30;99.90
7684;DHT22;3884;48.616;12.872;2023-04-15T05:44:45;5.30;99.90
7684;DHT22;3884;48.616;12.872;2023-04-15T05:47:12;5.40;99.90
7684;DHT22;3884;48.616;12.872;2023-04-15T05:49:39;5.30;99.90
7684;DHT22;3884;48.616;12.872;2023-04-15T05:52:06;5.40;99.90
7684;DHT22;3884;48.616;12.872;2023-04-15T05:54:32;5.30;99.90
7684;DHT22;3884;48.616;12.872;2023-04-15T05:56:59;5.30;99.90
7684;DHT22;3884;48.616;12.872;2023-04-15T05:59:27;5.30;99.90
7684;DHT22;3884;48.616;12.872;2023-04-15T06:01:55;5.40;99.90
7684;DHT22;3884;48.616;12.872;2023-04-15T06:04:22;5.40;99.90
7684;DHT22;3884;48.616;12.872;2023-04-15T06:06:49;5.30;99.90
7684;DHT22;3884;48.616;12.872;2023-04-15T06:09:16;5.30;99.90
7684;DHT22;3884;48.616;12.872;2023-04-15T06:11:43;5.30;99.90
7684;DHT22;3884;48.616;12.872;2023-04-15T06:14:10;5.30;99.90
7684;DHT22;3884;48.616;12.872;2023-04-15T06:16:37;5.30;99.90
7684;DHT22;3884;48.616;12.872;2023-04-15T06:19:05;5.30;99.90
7684;DHT22;3884;48.616;12.872;2023-04-15T06:21:32;5.30;99.90
7684;DHT22;3884;48.616;12.872;2023-04-15T06:23:59;5.30;99.90
7684;DHT22;3884;48.616;12.872;2023-04-15T06:26:27;5.30;99.90
7684;DHT22;3884;48.616;12.872;2023-04-15T06:28:54;5.30;99.90
7684;DHT22;3884;48.616;12.872;2023-04-15T06:31:21;5.30;99.90
7684;DHT22;3884;48.616;12.872;2023-04-15T06:33:48;5.20;99.90
7684;DHT22;3884;48.616;12.872;2023-04-15T06:36:16;5.20;99.90
7684;DHT22;3884;48.616;12.872;2023-04-15T06:38:43;5.20;99.90
7684;DHT22;3884;48.616;12.872;2023-04-15T06:41:10;5.20;99.90
7684;DHT22;3884;48.616;12.872;2023-04-15T06:43:38;5.20;99.90
7684;DHT22;3884;48.616;12.872;2023-04-15T06:46:05;5.20;99.90
7684;DHT22;3884;48.616;12.872;2023-04-15T06:48:31;5.20;99.90
7684;DHT22;3884;48.616;12.872;2023-04-15T06:50:58;5.30;99.90
7684;DHT22;3884;48.616;12.872;2023-04-15T06:53:26;5.20;99.90
7684;DHT22;3884;48.616;12.872;2023-04-15T06:55:53;5.20;99.90
7684;DHT22;3884;48.616;12.872;2023-04-15T06:58:20;5.30;99.90
7684;DHT22;3884;48.616;12.872;2023-04-15T07:00:47;5.30;99.90
7684;DHT22;3884;48.616;12.872;2023-04-15T07:03:14;5.30;99.90
7684;DHT22;3884;48.616;12.872;2023-04-15T07:05:41;5.30;99.90
7684;DHT22;3884;48.616;12.872;2023-04-15T07:08:08;5.30;99.90
7684;DHT22;3884;48.616;12.872;2023-04-15T07:10:36;5.20;99.90
7684;DHT22;3884;48.616;12.872;2023-04-15T07:13:03;5.20;99.90
7684;DHT22;3884;48.616;12.872;2023-04-15T07:15:30;5.20;99.90
7684;DHT22;3884;48.616;12.872;2023-04-15T07:17:57;5.30;99.90
7684;DHT22;3884;48.616;12.872;2023-04-15T07:20:24;5.30;99.90
7684;DHT22;3884;48.616;12.872;2023-04-15T07:22:51;5.30;99.90
7684;DHT22;3884;48.616;12.872;2023-04-15T07:25:17;5.30;99.90
7684;DHT22;3884;48.616;12.872;2023-04-15T07:27:46;5.30;99.90
7684;DHT22;3884;48.616;12.872;2023-04-15T07:30:13;5.40;99.90
7684;DHT22;3884;48.616;12.872;2023-04-15T07:32:41;5.40;99.90
7684;DHT22;3884;48.616;12.872;2023-04-15T07:35:08;5.30;99.90
7684;DHT22;3884;48.616;12.872;2023-04-15T07:37:35;5.30;99.90
7684;DHT22;3884;48.616;12.872;2023-04-15T07:40:02;5.30;99.90
7684;DHT22;3884;48.616;12.872;2023-04-15T07:42:31;5.30;99.90
7684;DHT22;3884;48.616;12.872;2023-04-15T07:45:00;5.30;99.90
7684;DHT22;3884;48.616;12.872;2023-04-15T07:47:27;5.30;99.90
7684;DHT22;3884;48.616;12.872;2023-04-15T07:49:53;5.40;99.90
7684;DHT22;3884;48.616;12.872;2023-04-15T07:52:20;5.40;99.90
7684;DHT22;3884;48.616;12.872;2023-04-15T07:54:47;5.40;99.90
7684;DHT22;3884;48.616;12.872;2023-04-15T07:57:14;5.40;99.90
7684;DHT22;3884;48.616;12.872;2023-04-15T07:59:41;5.40;99.90
7684;DHT22;3884;48.616;12.872;2023-04-15T08:02:10;5.40;99.90
7684;DHT22;3884;48.616;12.872;2023-04-15T08:04:37;5.40;99.90
7684;DHT22;3884;48.616;12.872;2023-04-15T08:07:03;5.40;99.90
7684;DHT22;3884;48.616;12.872;2023-04-15T08:09:30;5.40;99.90
7684;DHT22;3884;48.616;12.872;2023-04-15T08:11:57;5.40;99.90
7684;DHT22;3884;48.616;12.872;2023-04-15T08:14:24;5.40;99.90
7684;DHT22;3884;48.616;12.872;2023-04-15T08:16:51;5.40;99.90
7684;DHT22;3884;48.616;12.872;2023-04-15T08:19:19;5.40;99.90
7684;DHT22;3884;48.616;12.872;2023-04-15T08:21:47;5.40;99.90
7684;DHT22;3884;48.616;12.872;2023-04-15T08:24:14;5.40;99.90
7684;DHT22;3884;48.616;12.872;2023-04-15T08:26:41;5.40;99.90
7684;DHT22;3884;48.616;12.872;2023-04-15T08:29:08;5.40;99.90
7684;DHT22;3884;48.616;12.872;2023-04-15T08:31:34;5.50;99.90
7684;DHT22;3884;48.616;12.872;2023-04-15T08:34:01;5.50;99.90
7684;DHT22;3884;48.616;12.872;2023-04-15T08:36:29;5.50;99.90
7684;DHT22;3884;48.616;12.872;2023-04-15T08:38:57;5.50;99.90
7684;DHT22;3884;48.616;12.872;2023-04-15T08:41:26;5.50;99.90
7684;DHT22;3884;48.616;12.872;2023-04-15T08:43:55;5.50;99.90
7684;DHT22;3884;48.616;12.872;2023-04-15T08:46:23;5.50;99.90
7684;DHT22;3884;48.616;12.872;2023-04-15T08:48:50;5.60;99.90
7684;DHT22;3884;48.616;12.872;2023-04-15T08:51:17;5.50;99.90
7684;DHT22;3884;48.616;12.872;2023-04-15T08:53:45;5.60;99.90
7684;DHT22;3884;48.616;12.872;2023-04-15T08:56:14;5.60;99.90
7684;DHT22;3884;48.616;12.872;2023-04-15T08:58:43;5.60;99.90
7684;DHT22;3884;48.616;12.872;2023-04-15T09:01:11;5.60;99.90
7684;DHT22;3884;48.616;12.872;2023-04-15T09:03:38;5.60;99.90
7684;DHT22;3884;48.616;12.872;2023-04-15T09:06:06;5.60;99.90
7684;DHT22;3884;48.616;12.872;2023-04-15T09:08:33;5.70;99.90
7684;DHT22;3884;48.616;12.872;2023-04-15T09:11:02;5.70;99.90
7684;DHT22;3884;48.616;12.872;2023-04-15T09:13:29;5.60;99.90
7684;DHT22;3884;48.616;12.872;2023-04-15T09:15:56;5.70;99.90
7684;DHT22;3884;48.616;12.872;2023-04-15T09:18:27;5.70;99.90
7684;DHT22;3884;48.616;12.872;2023-04-15T09:20:55;5.60;99.90
7684;DHT22;3884;48.616;12.872;2023-04-15T09:23:22;5.60;99.90
7684;DHT22;3884;48.616;12.872;2023-04-15T09:25:49;5.70;99.90
7684;DHT22;3884;48.616;12.872;2023-04-15T09:28:24;5.80;99.90
7684;DHT22;3884;48.616;12.872;2023-04-15T09:30:54;5.70;99.90
7684;DHT22;3884;48.616;12.872;2023-04-15T09:33:23;5.70;99.90
7684;DHT22;3884;48.616;12.872;2023-04-15T09:35:58;5.80;99.90
7684;DHT22;3884;48.616;12.872;2023-04-15T09:38:25;5.80;99.90
7684;DHT22;3884;48.616;12.872;2023-04-15T09:40:52;5.80;99.90
7684;DHT22;3884;48.616;12.872;2023-04-15T09:43:19;5.80;99.90
7684;DHT22;3884;48.616;12.872;2023-04-15T09:45:49;5.90;99.90
7684;DHT22;3884;48.616;12.872;2023-04-15T09:48:18;5.90;99.90
7684;DHT22;3884;48.616;12.872;2023-04-15T09:50:47;5.90;99.90
7684;DHT22;3884;48.616;12.872;2023-04-15T09:53:18;5.90;99.90
7684;DHT22;3884;48.616;12.872;2023-04-15T09:55:49;5.90;99.90
7684;DHT22;3884;48.616;12.872;2023-04-15T09:58:20;6.00;99.90
7684;DHT22;3884;48.616;12.872;2023-04-15T10:00:49;6.10;99.90
7684;DHT22;3884;48.616;12.872;2023-04-15T10:03:19;6.10;99.90
7684;DHT22;3884;48.616;12.872;2023-04-15T10:05:47;6.10;99.90
7684;DHT22;3884;48.616;12.872;2023-04-15T10:08:16;6.10;99.90
7684;DHT22;3884;48.616;12.872;2023-04-15T10:10:44;6.10;99.90
7684;DHT22;3884;48.616;12.872;2023-04-15T10:13:12;6.20;99.90
7684;DHT22;3884;48.616;12.872;2023-04-15T10:15:42;6.20;99.90
7684;DHT22;3884;48.616;12.872;2023-04-15T10:18:12;6.20;99.90
7684;DHT22;3884;48.616;12.872;2023-04-15T10:20:41;6.40;99.90
7684;DHT22;3884;48.616;12.872;2023-04-15T10:23:09;6.40;99.90
7684;DHT22;3884;48.616;12.872;2023-04-15T10:25:37;6.30;99.90
7684;DHT22;3884;48.616;12.872;2023-04-15T10:28:06;6.30;99.90
7684;DHT22;3884;48.616;12.872;2023-04-15T10:30:34;6.30;99.90
7684;DHT22;3884;48.616;12.872;2023-04-15T10:33:02;6.30;99.90
7684;DHT22;3884;48.616;12.872;2023-04-15T10:35:31;6.30;99.90
7684;DHT22;3884;48.616;12.872;2023-04-15T10:37:59;6.30;99.90
7684;DHT22;3884;48.616;12.872;2023-04-15T10:40:27;6.40;99.90
7684;DHT22;3884;48.616;12.872;2023-04-15T10:42:57;6.50;99.90
7684;DHT22;3884;48.616;12.872;2023-04-15T10:45:25;6.50;99.90
7684;DHT22;3884;48.616;12.872;2023-04-15T10:47:54;6.50;99.90
7684;DHT22;3884;48.616;12.872;2023-04-15T10:50:34;6.50;99.90
7684;DHT22;3884;48.616;12.872;2023-04-15T10:53:02;6.40;99.90
7684;DHT22;3884;48.616;12.872;2023-04-15T10:55:31;6.50;99.90
7684;DHT22;3884;48.616;12.872;2023-04-15T10:58:00;6.60;99.90
7684;DHT22;3884;48.616;12.872;2023-04-15T11:00:28;6.60;99.90
7684;DHT22;3884;48.616;12.872;2023-04-15T11:02:57;6.60;99.90
7684;DHT22;3884;48.616;12.872;2023-04-15T11:05:50;6.60;99.90
7684;DHT22;3884;48.616;12.872;2023-04-15T11:08:18;6.70;99.90
7684;DHT22;3884;48.616;12.872;2023-04-15T11:10:52;6.70;99.90
7684;DHT22;3884;48.616;12.872;2023-04-15T11:13:28;6.70;99.90
7684;DHT22;3884;48.616;12.872;2023-04-15T11:15:59;6.70;99.90
7684;DHT22;3884;48.616;12.872;2023-04-15T11:18:28;6.80;99.90
7684;DHT22;3884;48.616;12.872;2023-04-15T11:20:58;6.70;99.90
7684;DHT22;3884;48.616;12.872;2023-04-15T11:23:37;6.70;99.90
7684;DHT22;3884;48.616;12.872;2023-04-15T11:26:06;6.70;99.90
7684;DHT22;3884;48.616;12.872;2023-04-15T11:28:38;6.70;99.90
7684;DHT22;3884;48.616;12.872;2023-04-15T11:31:07;6.80;99.90
7684;DHT22;3884;48.616;12.872;2023-04-15T11:33:35;6.80;99.90
7684;DHT22;3884;48.616;12.872;2023-04-15T11:36:11;6.80;99.90
7684;DHT22;3884;48.616;12.872;2023-04-15T11:38:45;6.80;99.90
7684;DHT22;3884;48.616;12.872;2023-04-15T11:41:12;6.80;99.90
7684;DHT22;3884;48.616;12.872;2023-04-15T11:43:39;6.90;99.90
7684;DHT22;3884;48.616;12.872;2023-04-15T11:46:06;6.80;99.90
7684;DHT22;3884;48.616;12.872;2023-04-15T11:48:34;6.90;99.90
7684;DHT22;3884;48.616;12.872;2023-04-15T11:51:04;7.00;99.90
7684;DHT22;3884;48.616;12.872;2023-04-15T11:53:39;6.90;99.90
7684;DHT22;3884;48.616;12.872;2023-04-15T11:56:07;6.90;99.90
7684;DHT22;3884;48.616;12.872;2023-04-15T11:58:35;7.00;99.90
7684;DHT22;3884;48.616;12.872;2023-04-15T12:01:04;7.00;99.90
7684;DHT22;3884;48.616;12.872;2023-04-15T12:03:36;7.10;99.90
7684;DHT22;3884;48.616;12.872;2023-04-15T12:06:13;7.00;99.90
7684;DHT22;3884;48.616;12.872;2023-04-15T12:08:48;7.00;99.90
7684;DHT22;3884;48.616;12.872;2023-04-15T12:11:15;7.10;99.90
7684;DHT22;3884;48.616;12.872;2023-04-15T12:13:43;7.00;99.90
7684;DHT22;3884;48.616;12.872;2023-04-15T12:16:10;7.00;99.90
7684;DHT22;3884;48.616;12.872;2023-04-15T12:18:37;7.00;99.90
7684;DHT22;3884;48.616;12.872;2023-04-15T12:21:20;7.00;99.90
7684;DHT22;3884;48.616;12.872;2023-04-15T12:24:11;7.00;99.90
7684;DHT22;3884;48.616;12.872;2023-04-15T12:26:43;6.80;99.90
7684;DHT22;3884;48.616;12.872;2023-04-15T12:29:11;6.90;99.90
7684;DHT22;3884;48.616;12.872;2023-04-15T12:31:50;6.80;99.90
7684;DHT22;3884;48.616;12.872;2023-04-15T12:34:18;6.80;99.90
7684;DHT22;3884;48.616;12.872;2023-04-15T12:36:52;6.80;99.90
7684;DHT22;3884;48.616;12.872;2023-04-15T12:39:21;6.80;99.90
7684;DHT22;3884;48.616;12.872;2023-04-15T12:41:48;6.80;99.90
7684;DHT22;3884;48.616;12.872;2023-04-15T12:44:15;6.90;99.90
7684;DHT22;3884;48.616;12.872;2023-04-15T12:46:42;6.90;99.90
7684;DHT22;3884;48.616;12.872;2023-04-15T12:49:09;6.90;99.90
7684;DHT22;3884;48.616;12.872;2023-04-15T12:51:36;7.00;99.90
7684;DHT22;3884;48.616;12.872;2023-04-15T12:54:04;7.00;99.90
7684;DHT22;3884;48.616;12.872;2023-04-15T12:56:38;6.90;99.90
7684;DHT22;3884;48.616;12.872;2023-04-15T12:59:05;6.90;99.90
7684;DHT22;3884;48.616;12.872;2023-04-15T13:01:32;6.90;99.90
7684;DHT22;3884;48.616;12.872;2023-04-15T13:03:59;6.80;99.90
7684;DHT22;3884;48.616;12.872;2023-04-15T13:06:26;6.90;99.90
7684;DHT22;3884;48.616;12.872;2023-04-15T13:08:53;6.80;99.90
7684;DHT22;3884;48.616;12.872;2023-04-15T13:14:22;6.80;99.90
7684;DHT22;3884;48.616;12.872;2023-04-15T13:20:17;6.80;99.90
7684;DHT22;3884;48.616;12.872;2023-04-15T13:22:44;6.90;99.90
7684;DHT22;3884;48.616;12.872;2023-04-15T13:25:11;7.00;99.90
7684;DHT22;3884;48.616;12.872;2023-04-15T13:27:38;7.00;99.90
7684;DHT22;3884;48.616;12.872;2023-04-15T13:30:07;7.00;99.90
7684;DHT22;3884;48.616;12.872;2023-04-15T13:32:34;7.00;99.90
7684;DHT22;3884;48.616;12.872;2023-04-15T13:35:01;7.00;99.90
7684;DHT22;3884;48.616;12.872;2023-04-15T13:37:29;7.00;99.90
7684;DHT22;3884;48.616;12.872;2023-04-15T13:39:56;7.00;99.90
7684;DHT22;3884;48.616;12.872;2023-04-15T13:42:23;7.00;99.90
7684;DHT22;3884;48.616;12.872;2023-04-15T13:44:50;7.00;99.90
7684;DHT22;3884;48.616;12.872;2023-04-15T13:47:18;7.00;99.90
7684;DHT22;3884;48.616;12.872;2023-04-15T13:49:45;7.00;99.90
7684;DHT22;3884;48.616;12.872;2023-04-15T13:52:12;7.10;99.90
7684;DHT22;3884;48.616;12.872;2023-04-15T13:54:39;7.00;99.90
7684;DHT22;3884;48.616;12.872;2023-04-15T13:57:06;7.00;99.90
7684;DHT22;3884;48.616;12.872;2023-04-15T13:59:33;7.00;99.90
7684;DHT22;3884;48.616;12.872;2023-04-15T14:02:00;6.90;99.90
7684;DHT22;3884;48.616;12.872;2023-04-15T14:04:29;7.00;99.90
7684;DHT22;3884;48.616;12.872;2023-04-15T14:06:56;7.00;99.90
7684;DHT22;3884;48.616;12.872;2023-04-15T14:09:23;7.00;99.90
7684;DHT22;3884;48.616;12.872;2023-04-15T14:11:50;7.00;99.90
7684;DHT22;3884;48.616;12.872;2023-04-15T14:14:17;7.00;99.90
7684;DHT22;3884;48.616;12.872;2023-04-15T14:16:44;7.20;99.90
7684;DHT22;3884;48.616;12.872;2023-04-15T14:19:12;7.20;99.90
7684;DHT22;3884;48.616;12.872;2023-04-15T14:21:40;7.10;99.90
7684;DHT22;3884;48.616;12.872;2023-04-15T14:24:07;7.20;99.90
7684;DHT22;3884;48.616;12.872;2023-04-15T14:26:34;7.20;99.90
7684;DHT22;3884;48.616;12.872;2023-04-15T14:29:01;7.20;99.90
7684;DHT22;3884;48.616;12.872;2023-04-15T14:31:27;7.20;99.90
7684;DHT22;3884;48.616;12.872;2023-04-15T14:33:54;7.30;99.90
7684;DHT22;3884;48.616;12.872;2023-04-15T14:36:21;7.30;99.90
7684;DHT22;3884;48.616;12.872;2023-04-15T14:38:49;7.30;99.90
7684;DHT22;3884;48.616;12.872;2023-04-15T14:41:16;7.30;99.90
7684;DHT22;3884;48.616;12.872;2023-04-15T14:43:43;7.30;99.90
7684;DHT22;3884;48.616;12.872;2023-04-15T14:46:10;7.30;99.90
7684;DHT22;3884;48.616;12.872;2023-04-15T14:48:36;7.40;99.90
7684;DHT22;3884;48.616;12.872;2023-04-15T14:51:03;7.40;99.90
7684;DHT22;3884;48.616;12.872;2023-04-15T14:53:30;7.30;52.60
7684;DHT22;3884;48.616;12.872;2023-04-15T14:55:58;7.30;94.80
7684;DHT22;3884;48.616;12.872;2023-04-15T14:58:25;7.40;99.90
7684;DHT22;3884;48.616;12.872;2023-04-15T15:00:52;7.40;99.90
7684;DHT22;3884;48.616;12.872;2023-04-15T15:03:18;7.50;99.90
7684;DHT22;3884;48.616;12.872;2023-04-15T15:05:45;7.40;60.20
7684;DHT22;3884;48.616;12.872;2023-04-15T15:08:12;7.30;99.90
7684;DHT22;3884;48.616;12.872;2023-04-15T15:10:39;7.30;99.90
7684;DHT22;3884;48.616;12.872;2023-04-15T15:13:08;7.30;99.90
7684;DHT22;3884;48.616;12.872;2023-04-15T15:15:36;7.30;99.90
7684;DHT22;3884;48.616;12.872;2023-04-15T15:18:04;7.30;99.90
7684;DHT22;3884;48.616;12.872;2023-04-15T15:20:31;7.50;99.90
7684;DHT22;3884;48.616;12.872;2023-04-15T15:22:59;7.30;99.90
7684;DHT22;3884;48.616;12.872;2023-04-15T15:25:25;7.30;99.90
7684;DHT22;3884;48.616;12.872;2023-04-15T15:27:52;7.30;99.90
7684;DHT22;3884;48.616;12.872;2023-04-15T15:30:20;7.30;99.90
7684;DHT22;3884;48.616;12.872;2023-04-15T15:32:47;7.20;99.90
7684;DHT22;3884;48.616;12.872;2023-04-15T15:35:14;7.20;99.90
7684;DHT22;3884;48.616;12.872;2023-04-15T15:37:41;7.30;99.90
7684;DHT22;3884;48.616;12.872;2023-04-15T15:40:09;7.30;99.90
7684;DHT22;3884;48.616;12.872;2023-04-15T15:42:36;7.20;99.90
7684;DHT22;3884;48.616;12.872;2023-04-15T15:45:04;7.20;99.90
7684;DHT22;3884;48.616;12.872;2023-04-15T15:47:32;7.20;99.90
7684;DHT22;3884;48.616;12.872;2023-04-15T15:49:59;7.30;99.90
7684;DHT22;3884;48.616;12.872;2023-04-15T15:52:26;7.30;99.90
7684;DHT22;3884;48.616;12.872;2023-04-15T15:54:53;7.20;99.90
7684;DHT22;3884;48.616;12.872;2023-04-15T15:57:20;7.20;99.90
7684;DHT22;3884;48.616;12.872;2023-04-15T15:59:46;7.20;99.90
7684;DHT22;3884;48.616;12.872;2023-04-15T16:02:14;7.20;99.90
7684;DHT22;3884;48.616;12.872;2023-04-15T16:04:42;7.10;99.90
7684;DHT22;3884;48.616;12.872;2023-04-15T16:07:09;7.20;99.90
7684;DHT22;3884;48.616;12.872;2023-04-15T16:09:36;7.20;99.90
7684;DHT22;3884;48.616;12.872;2023-04-15T16:12:05;7.20;99.90
7684;DHT22;3884;48.616;12.872;2023-04-15T16:14:32;7.10;99.90